Have a Safe July 4th! 

Flight Track Log - Related Links

Times and Time Zones

All times are in EDT time to prevent confusion due to time zone crossing. See the SWA1046 flight status page for this flight to view local times or setup timezone preferences in your user account.

Time Position Orientation Groundspeed Altitude Reporting Facility
EDT Latitude Longitude Course Direction KTS MPH feet Rate Location/Type
Thu 05:14:38 PM 32.8667 -96.8667 320° Northwest 140 161 1,600  Level Dallas / Fort Worth TRACON
Thu 05:15:39 PM 32.9000 -96.9000 320° Northwest 213 245 3,400 2,898 Climbing Dallas / Fort Worth TRACON
Thu 05:18:03 PM 33.0144 -97.0369 315° West 276 318 11,500 3,147 Climbing Fort Worth Center
Thu 05:19:03 PM 33.0897 -97.0514 351° North 276 318 14,100 2,700 Climbing Fort Worth Center
Thu 05:20:03 PM 33.1981 -97.0386 North 324 373 16,900 2,550 Climbing Fort Worth Center
Thu 05:21:03 PM 33.3089 -97.0406 359° North 357 411 19,200 2,150 Climbing Fort Worth Center
Thu 05:22:03 PM 33.4047 -97.0675 347° North 395 455 21,200 2,400 Climbing Fort Worth Center
Thu 05:23:03 PM 33.5322 -97.1044 346° North 414 476 24,000 2,300 Climbing Fort Worth Center
Thu 05:24:03 PM 33.6389 -97.1367 346° North 426 490 25,800 2,250 Climbing Fort Worth Center
Thu 05:25:03 PM 33.7725 -97.1736 347° North 438 504 28,500 1,600 Climbing Fort Worth Center
Thu 05:26:03 PM 33.8769 -97.2058 346° North 431 496 29,000 250 Climbing Fort Worth Center
Thu 05:27:03 PM 33.9958 -97.2406 346° North 431 496 29,000  Level Fort Worth Center
Thu 05:28:03 PM 34.1147 -97.2756 346° North 431 496 29,000 -2,450 Level Fort Worth Center
Thu 05:29:03 PM 34.2358 -97.3131 346° North 431 496 24,100  Descending Fort Worth Center
Thu 05:30:03 PM 34.3528 -97.3456 347° North 431 496 29,000 -3,300 Climbing Fort Worth Center
Thu 05:31:03 PM 34.4697 -97.3808 346° North 431 496 17,500 -7,550 Descending Fort Worth Center
Thu 05:32:03 PM 34.5844 -97.4136 347° North 431 496 13,900 -2,550 Descending Fort Worth Center
Thu 05:33:03 PM 34.6908 -97.4439 347° North 411 473 12,400 -1,586 Descending Fort Worth Center
Thu 05:33:30 PM 34.7408 -97.4564 348° North 326 375 11,600 -1,300 Descending Fort Worth Center
Thu 05:34:03 PM 34.7783 -97.4692 344° North 367 422 11,100 -1,347 Descending Fort Worth Center
Thu 05:34:19 PM 34.8056 -97.4792 343° North 303 349 10,500 -1,756 Descending Fort Worth Center
Thu 05:35:25 PM 34.8889 -97.5022 347° North 277 319 8,700 -1,558 Descending Fort Worth Center
Thu 05:36:03 PM 34.9306 -97.5147 346° North 285 328 7,800 -1,869 Descending Fort Worth Center
Thu 05:36:26 PM 34.9661 -97.5225 350° North 266 306 6,800 -1,600 Descending Fort Worth Center
Thu 05:37:03 PM 35.0017 -97.5353 344° North 264 304 6,200 -1,180 Descending Fort Worth Center
Thu 05:37:27 PM 35.0328 -97.5453 345° North 240 276 5,600 -1,100 Descending Fort Worth Center
Thu 05:38:03 PM 35.0600 -97.5531 347° North 237 273 5,100 -1,200 Descending Fort Worth Center
Thu 05:38:22 PM 35.0850 -97.5608 346° North 204 235 4,500 -1,100 Descending Fort Worth Center
Thu 05:39:03 PM 35.1161 -97.5683 349° North 219 252 4,000 -500 Descending Fort Worth Center
Thu 05:39:22 PM 35.1369 -97.5761 343° North 191 220 4,000  Level Fort Worth Center
Thu 05:40:03 PM 35.1642 -97.5836 347° North 195 224 4,000  Level Fort Worth Center
Thu 05:40:23 PM 35.1850 -97.5914 343° North 172 198 4,000 -600 Level Fort Worth Center
Thu 05:41:03 PM 35.2081 -97.5914 360° North 171 197 3,400 -806 Descending Fort Worth Center
Thu 05:41:30 PM 35.2267 -97.5939 354° North 138 159 3,100 -400 Descending Fort Worth Center
Thu 05:42:03 PM 35.2456 -97.5914 North 151 174 3,000 98 Descending Fort Worth Center
Thu 05:42:31 PM 35.2642 -97.5942 353° North 135 155 3,200 100 Climbing Fort Worth Center
Thu 05:43:03 PM 35.2850 -97.5917 North 138 159 3,100 -590 Descending Fort Worth Center
Thu 05:43:32 PM 35.3081 -97.5942 355° North 143 165 2,600 -800 Descending Fort Worth Center
Thu 05:44:03 PM 35.3247 -97.5917 North 138 159 2,300 -700 Descending Fort Worth Center
Thu 05:44:32 PM 35.3436 -97.5967 348° North 128 147 1,900 -600 Descending Fort Worth Center
Thu 05:45:03 PM 35.3581 -97.5917 16° North 138 159 1,700 -396 Descending Fort Worth Center
Thu 05:46:03 PM 35.3978 -97.5919 360° North 132 152 1,300 -400 Descending Fort Worth Center
Thu 05:50:00 PM 35.3931 -97.6008 North  Level Estimated

Login

Don't have an account? Register now (free) for customized features, flight alerts, and more!